CheckWX is a tool to help pilots better visualize weather data.  It is not intended as a substitute for an official pre-flight weather briefing.

14:14:12 UTC

KFRG METAR
Republic Airport
Farmingdale, New York, USA
Current

21 mins ago

KFRG 221353Z 02011KT 10SM BKN080 OVC100 14/10 A3003 RMK AO2 SLP168 T01440100
Observed
Apr-22 @ 13:53 UTC
Wind
  • 020° at 11 KTS
Visibility
10 SM
Flight Rules
VFR
Cloud Levels
  • Broken at 8,000' AGL
  • Overcast at 10,000' AGL
Temperature
14°C / 57°F
Dewpoint
10°C / 50°F
Humidity
77%
Altimeter
30.03" Hg
Pressure
1016.92 hPa
Previous

1 hour ago

KFRG 221253Z 01009KT 10SM OVC070 13/09 A3004 RMK AO2 SLP174 T01330089
Observed
Apr-22 @ 12:53 UTC
Wind
  • 010° at 9 KTS
Visibility
10 SM
Flight Rules
VFR
Cloud Levels
  • Overcast at 7,000' AGL
Temperature
13°C / 55°F
Dewpoint
C / 48°F
Humidity
77%
Altimeter
30.04" Hg
Pressure
1017.32 hPa
Previous

2 hours ago

KFRG 221153Z 36006KT 10SM BKN100 11/08 A3005 RMK AO2 SLP177 T01110078 10111 20083 50002
Observed
Apr-22 @ 11:53 UTC
Wind
  • 360° at 6 KTS
Visibility
10 SM
Flight Rules
VFR
Cloud Levels
  • Broken at 10,000' AGL
Temperature
11°C / 52°F
Dewpoint
C / 46°F
Humidity
82%
Altimeter
30.05" Hg
Pressure
1017.62 hPa